Stratton, VT

2:06 AM EDT on May 05, 2015 (GMT -0400)
Stratton Mountain | | Change Station
CLOSE
Current Station
Personal Weather Station
Location: Stratton, VT
Elevation: 3159 ft
Nearby Weather Stations

Elev 3159 ft 43.10 °N, 72.92 °W | Updated 60 seconds ago

Overcast
Overcast
51.6 °F
Feels Like 51.6 °F
N
6.0
Wind Variable Wind from ENE

Today
High -- | Low -- °F
--% Chance of Precip.
Yesterday
High -- | Low -- °F
Precip. -- in
5:40 AM 7:57 PM
Full, 99% visible
Pressure 30.11 in
Visibility 10.0 miles
Clouds Overcast 9000 ft
Dew Point 7 °F
Humidity 16%
Rainfall 0.00 in
Snow Depth Not available.
UV 0 out of 12
Pollen 11.40 out of 12
Air Quality Not available.
Flu Activity Regional
METAR KDDH 050554Z AUTO 24008KT 10SM OVC090 20/10 A3013 RMK AO2 SLP196 T02000100 10256 20200 53019

More Conditions Fewer Conditions

Pressure 30.11 in
Visibility 10.0 miles
Clouds Overcast 9000 ft
Dew Point 7 °F
Humidity 16%
Rainfall 0.00 in
Snow Depth Not available.
UV 0 out of 12
Pollen 11.40 out of 12
Air Quality Not available.
Flu Activity Regional
METAR KDDH 050554Z AUTO 24008KT 10SM OVC090 20/10 A3013 RMK AO2 SLP196 T02000100 10256 20200 53019

More Conditions Fewer Conditions

Nepal has a long way to go to dig out and rebuild from a devastating earthquake. We have teamed up with several charities and organizations to make contributing to the relief effort as easy as possible.
How you can help: Portlight Strategies | Red Cross

10-Day Weather Forecast

Almanac

Astronomy

May. 05, 2015 Rise Set
Actual Time
Civil Twilight
Nautical Twilight
Astronomical Twilight
Moon
Length of Visible Light
Length of Day
Tomorrow will be .
, % of the Moon is Illuminated

Today's Extremes

State Highs State Lows

Community

WunderPhotos

Upload Photos

1,818,814 photos uploaded!

WunderBlogs® & News

Nearby

Air Quality

  Air Quality AQ Index Pollutant
Not available.

Snow Depth

Station Depth Elevation

Earthquake Activity

City Distance Mag. Time & Date
Minimum magnitude displayed is 2.5.

Coastal Water Temperatures

Place Temperature

Stations

Nearby Weather Stations

Station Location Temp. Windchill Dew Point Humidity Wind Precip. Elev Updated Type